Time;durP1;ratioP1;P1;durP2;ratioP2;P2;SDS_P1;SDS_P2;PMS_P1;PMS_P2;Temp;Humidity;BMP_temperature;BMP_pressure;BME280_temperature;BME280_humidity;BME280_pressure;Samples;Min_cycle;Max_cycle;Signal;HPM_P1;HPM_P2
2023/09/14 00:01:15;;;;;;;12.23;9.98;;;22.50;99.90;;;;;;5046504;28;20507;-77
2023/09/14 00:03:42;;;;;;;16.42;10.10;;;22.50;99.90;;;;;;5026478;28;20387;-76
2023/09/14 00:06:10;;;;;;;16.38;10.10;;;22.50;99.90;;;;;;5068896;28;20683;-76
2023/09/14 00:08:37;;;;;;;15.45;9.38;;;22.50;99.90;;;;;;5039868;28;20425;-77
2023/09/14 00:11:05;;;;;;;14.68;9.43;;;22.50;99.90;;;;;;5071335;28;20426;-77
2023/09/14 00:13:32;;;;;;;20.20;9.15;;;22.50;99.90;;;;;;5044464;28;20115;-77
2023/09/14 00:15:59;;;;;;;12.25;8.07;;;22.50;99.90;;;;;;5070287;28;20055;-77
2023/09/14 00:18:27;;;;;;;13.55;7.78;;;22.40;99.90;;;;;;5043137;28;20094;-77
2023/09/14 00:20:56;;;;;;;10.02;7.07;;;22.40;99.90;;;;;;5056363;28;20119;-79
2023/09/14 00:23:23;;;;;;;6.70;5.20;;;22.40;99.90;;;;;;5057790;28;20163;-78
2023/09/14 00:25:50;;;;;;;8.23;4.28;;;22.40;99.90;;;;;;5057890;28;20996;-76
2023/09/14 00:28:18;;;;;;;5.88;3.95;;;22.40;99.90;;;;;;5075466;28;20033;-80
2023/09/14 00:30:46;;;;;;;5.40;3.40;;;22.30;99.90;;;;;;5044997;28;20099;-78
2023/09/14 00:33:13;;;;;;;4.30;3.05;;;22.30;99.90;;;;;;5046715;28;20136;-78
2023/09/14 00:35:40;;;;;;;6.97;2.75;;;22.30;99.90;;;;;;5042138;28;20140;-77
2023/09/14 00:38:07;;;;;;;5.50;2.60;;;22.30;99.90;;;;;;5022895;28;20046;-78
2023/09/14 00:40:34;;;;;;;3.38;1.90;;;22.30;99.90;;;;;;5043180;28;20127;-77
2023/09/14 00:43:01;;;;;;;3.40;2.47;;;22.30;99.60;;;;;;5038929;28;20048;-78
2023/09/14 00:45:29;;;;;;;4.60;2.35;;;22.20;99.40;;;;;;5052273;28;22797;-77
2023/09/14 00:47:57;;;;;;;5.18;2.10;;;22.20;99.60;;;;;;5046929;28;20130;-77
2023/09/14 00:50:26;;;;;;;4.80;2.00;;;22.20;99.60;;;;;;5043112;28;20978;-77
2023/09/14 00:53:06;;;;;;;4.70;2.05;;;22.20;99.90;;;;;;5035053;28;20045;-77
2023/09/14 00:55:35;;;;;;;5.70;2.38;;;22.20;99.90;;;;;;5042304;28;20140;-77
2023/09/14 00:58:03;;;;;;;8.20;2.50;;;22.10;99.90;;;;;;5056314;28;20474;-77
2023/09/14 01:00:31;;;;;;;4.30;2.42;;;22.10;99.90;;;;;;5047476;28;20155;-77
2023/09/14 01:02:58;;;;;;;9.48;2.58;;;22.10;99.90;;;;;;5046586;28;20048;-77
2023/09/14 01:05:30;;;;;;;3.92;2.03;;;22.00;99.90;;;;;;5060395;28;20040;-77
2023/09/14 01:07:58;;;;;;;5.65;2.22;;;22.00;99.90;;;;;;5062758;28;20101;-77
2023/09/14 01:10:26;;;;;;;4.82;1.92;;;22.00;99.90;;;;;;5072637;28;20045;-76
2023/09/14 01:12:53;;;;;;;7.80;2.40;;;21.90;99.90;;;;;;5045065;28;20750;-76
2023/09/14 01:15:30;;;;;;;3.70;2.15;;;22.00;99.90;;;;;;5041901;28;20491;-77
2023/09/14 01:18:19;;;;;;;4.55;1.90;;;21.90;99.90;;;;;;5056294;28;20051;-77
2023/09/14 01:21:25;;;;;;;3.05;2.10;;;21.90;99.90;;;;;;5050513;28;20040;-77
2023/09/14 01:24:20;;;;;;;7.15;2.22;;;21.90;99.90;;;;;;5074729;28;20049;-77
2023/09/14 01:26:47;;;;;;;4.82;2.33;;;21.80;99.90;;;;;;5053608;28;20036;-77
2023/09/14 01:29:16;;;;;;;4.90;1.90;;;21.80;99.90;;;;;;5071352;28;20064;-76
2023/09/14 01:31:43;;;;;;;5.60;2.08;;;21.80;99.90;;;;;;5042899;28;20499;-76
2023/09/14 01:34:12;;;;;;;3.60;2.50;;;21.80;99.90;;;;;;5047118;28;20053;-76
2023/09/14 01:36:56;;;;;;;3.60;2.88;;;21.80;99.90;;;;;;5031884;28;20472;-76
2023/09/14 01:39:25;;;;;;;7.68;3.08;;;21.70;99.90;;;;;;5061172;28;20049;-77
2023/09/14 01:41:55;;;;;;;4.32;2.67;;;21.70;99.90;;;;;;5047645;28;20040;-76
2023/09/14 01:44:27;;;;;;;4.30;2.90;;;21.70;99.90;;;;;;5043590;28;20460;-76
2023/09/14 01:46:55;;;;;;;5.05;3.05;;;21.70;99.90;;;;;;5045820;28;20044;-76
2023/09/14 01:49:22;;;;;;;4.95;2.95;;;21.70;99.90;;;;;;5028785;28;20041;-77
2023/09/14 01:51:50;;;;;;;3.58;2.75;;;21.70;99.90;;;;;;5041872;28;20118;-76
2023/09/14 01:54:17;;;;;;;4.57;2.92;;;21.70;99.90;;;;;;5042938;28;20490;-76
2023/09/14 01:56:45;;;;;;;4.07;2.45;;;21.70;99.90;;;;;;5047304;28;20487;-77
2023/09/14 01:59:12;;;;;;;6.28;3.00;;;21.70;99.90;;;;;;5084065;28;20055;-76
2023/09/14 02:01:40;;;;;;;4.07;2.90;;;21.70;99.90;;;;;;5088304;28;20044;-77
2023/09/14 02:04:07;;;;;;;4.18;2.70;;;21.70;99.90;;;;;;5079521;28;20418;-77
2023/09/14 02:06:34;;;;;;;6.05;3.20;;;21.70;99.90;;;;;;5082575;28;21967;-76
2023/09/14 02:09:02;;;;;;;4.25;2.80;;;21.70;99.90;;;;;;5064161;28;20052;-76
2023/09/14 02:11:29;;;;;;;6.55;2.70;;;21.70;99.90;;;;;;5083980;28;20044;-76
2023/09/14 02:13:56;;;;;;;5.10;2.75;;;21.70;99.90;;;;;;5082934;28;20127;-76
2023/09/14 02:16:27;;;;;;;7.07;3.28;;;21.60;99.90;;;;;;5078857;28;20060;-76
2023/09/14 02:18:54;;;;;;;8.27;3.65;;;21.60;99.90;;;;;;5066931;28;20044;-76
2023/09/14 02:21:21;;;;;;;4.22;3.40;;;21.60;99.90;;;;;;5075250;28;20086;-76
2023/09/14 02:23:48;;;;;;;5.50;3.30;;;21.60;99.90;;;;;;5080293;28;20033;-76
2023/09/14 02:26:15;;;;;;;4.35;2.78;;;21.60;99.90;;;;;;5079560;28;20055;-77
2023/09/14 02:28:42;;;;;;;6.78;3.72;;;21.60;99.90;;;;;;5081651;28;20417;-76
2023/09/14 02:31:10;;;;;;;6.85;3.53;;;21.60;99.90;;;;;;5084437;28;20044;-76
2023/09/14 02:33:38;;;;;;;5.75;3.58;;;21.50;99.90;;;;;;5077799;28;20144;-77
2023/09/14 02:36:06;;;;;;;7.28;3.75;;;21.50;99.90;;;;;;5093464;28;20140;-77
2023/09/14 02:38:33;;;;;;;6.53;3.72;;;21.40;99.90;;;;;;5080899;28;20051;-77
2023/09/14 02:41:00;;;;;;;8.57;4.00;;;21.40;99.90;;;;;;5084761;28;20491;-77
2023/09/14 02:43:27;;;;;;;6.53;3.70;;;21.40;99.90;;;;;;5090325;28;20097;-76
2023/09/14 02:45:54;;;;;;;8.23;3.90;;;21.40;99.90;;;;;;5073889;28;20913;-76
2023/09/14 02:48:22;;;;;;;5.07;3.40;;;21.50;99.90;;;;;;5077278;28;20155;-76
2023/09/14 02:50:49;;;;;;;7.30;3.95;;;21.50;99.90;;;;;;5076561;28;20051;-77
2023/09/14 02:53:16;;;;;;;6.18;3.65;;;21.50;99.90;;;;;;5079724;28;20052;-76
2023/09/14 02:55:43;;;;;;;6.80;3.53;;;21.50;99.90;;;;;;5095021;28;20142;-76
2023/09/14 02:58:10;;;;;;;6.03;4.53;;;21.40;99.90;;;;;;5081078;28;20041;-76
2023/09/14 03:00:39;;;;;;;6.10;4.03;;;21.40;99.90;;;;;;5078302;28;20421;-76
2023/09/14 03:03:11;;;;;;;6.45;4.53;;;21.30;99.90;;;;;;5078333;28;20052;-76
2023/09/14 03:05:40;;;;;;;5.22;3.90;;;21.20;99.90;;;;;;5090502;27;20135;-77
2023/09/14 03:08:07;;;;;;;4.50;2.88;;;21.30;99.90;;;;;;5079458;28;20514;-77
2023/09/14 03:10:36;;;;;;;4.47;3.40;;;21.20;99.90;;;;;;5076186;28;20098;-77
2023/09/14 03:13:03;;;;;;;6.07;3.33;;;21.20;99.90;;;;;;5083310;28;20044;-77
2023/09/14 03:15:30;;;;;;;5.18;3.30;;;21.20;99.90;;;;;;5082877;28;20036;-77
2023/09/14 03:17:58;;;;;;;5.05;3.80;;;21.20;99.90;;;;;;5089055;28;20121;-77
2023/09/14 03:20:25;;;;;;;5.80;3.17;;;21.20;99.90;;;;;;5077237;28;20090;-76
2023/09/14 03:22:52;;;;;;;6.22;3.15;;;21.10;99.90;;;;;;5080573;28;20040;-76
2023/09/14 03:25:19;;;;;;;5.22;3.97;;;21.10;99.90;;;;;;5090752;28;20048;-76
2023/09/14 03:27:48;;;;;;;5.85;3.13;;;21.10;99.90;;;;;;5081176;28;20036;-76
2023/09/14 03:30:15;;;;;;;5.35;3.13;;;21.20;99.90;;;;;;5076937;28;20498;-76
2023/09/14 03:32:42;;;;;;;8.50;3.58;;;21.20;99.90;;;;;;5084204;28;20556;-76
2023/09/14 03:35:09;;;;;;;7.25;3.40;;;21.20;99.90;;;;;;5063693;28;20495;-76
2023/09/14 03:37:36;;;;;;;5.28;3.25;;;21.10;99.90;;;;;;5059827;28;20532;-76
2023/09/14 03:40:08;;;;;;;6.40;3.30;;;21.10;99.90;;;;;;5077483;28;20054;-76
2023/09/14 03:42:37;;;;;;;5.22;3.38;;;21.00;99.90;;;;;;5065539;28;20066;-77
2023/09/14 03:45:05;;;;;;;5.00;3.00;;;21.00;99.90;;;;;;5079751;28;20046;-76
2023/09/14 03:47:32;;;;;;;9.30;3.58;;;21.00;99.90;;;;;;5080698;28;20139;-76
2023/09/14 03:49:59;;;;;;;7.13;3.40;;;21.00;99.90;;;;;;5084197;28;21016;-77
2023/09/14 03:52:27;;;;;;;5.32;3.00;;;20.90;99.90;;;;;;5078689;28;20064;-77
2023/09/14 03:54:54;;;;;;;5.97;2.55;;;20.90;99.90;;;;;;5084523;28;20119;-77
2023/09/14 03:57:21;;;;;;;5.53;2.50;;;20.90;99.90;;;;;;5062503;28;20043;-76
2023/09/14 03:59:48;;;;;;;4.68;3.00;;;20.90;99.90;;;;;;5084994;28;20056;-76
2023/09/14 04:02:15;;;;;;;6.55;2.70;;;21.00;99.90;;;;;;5080870;28;20083;-77
2023/09/14 04:04:43;;;;;;;7.05;3.35;;;20.90;99.90;;;;;;5065641;28;20051;-77
2023/09/14 04:07:10;;;;;;;4.22;2.58;;;20.90;99.90;;;;;;5064397;28;20053;-77
2023/09/14 04:09:38;;;;;;;4.72;2.83;;;20.90;99.90;;;;;;5078498;28;22812;-76
2023/09/14 04:12:05;;;;;;;6.80;2.97;;;20.90;99.90;;;;;;5066465;28;20134;-76
2023/09/14 04:14:32;;;;;;;6.40;3.30;;;20.90;99.90;;;;;;5064395;28;20105;-77
2023/09/14 04:17:01;;;;;;;5.53;3.20;;;20.90;99.90;;;;;;5063915;28;20039;-76
2023/09/14 04:19:30;;;;;;;5.43;2.70;;;20.90;99.90;;;;;;5083015;28;20498;-77
2023/09/14 04:21:58;;;;;;;5.47;2.75;;;20.80;99.90;;;;;;5084621;28;20135;-77
2023/09/14 04:24:27;;;;;;;4.40;2.90;;;20.80;99.90;;;;;;5088060;28;20043;-77
2023/09/14 04:26:55;;;;;;;4.60;2.83;;;20.80;99.90;;;;;;5071676;28;20049;-77
2023/09/14 04:29:22;;;;;;;9.10;2.33;;;20.80;99.90;;;;;;5091440;28;20123;-77
2023/09/14 04:31:49;;;;;;;5.47;2.60;;;20.80;99.90;;;;;;5093661;28;20557;-77
2023/09/14 04:34:16;;;;;;;4.43;2.20;;;20.80;99.90;;;;;;5081824;28;20046;-76
2023/09/14 04:36:44;;;;;;;4.68;2.72;;;20.70;99.90;;;;;;5064783;28;21015;-76
2023/09/14 04:39:12;;;;;;;4.45;2.60;;;20.70;99.90;;;;;;5066963;28;20053;-77
2023/09/14 04:41:40;;;;;;;5.60;2.50;;;20.70;99.90;;;;;;5083847;28;20048;-76
2023/09/14 04:44:07;;;;;;;5.03;2.75;;;20.80;99.90;;;;;;5063672;28;20083;-76
2023/09/14 04:46:34;;;;;;;5.78;2.63;;;20.70;99.90;;;;;;5079943;28;20059;-77
2023/09/14 04:49:03;;;;;;;3.55;2.22;;;20.70;99.90;;;;;;5067121;28;20048;-77
2023/09/14 04:51:30;;;;;;;4.72;2.35;;;20.80;99.90;;;;;;5079108;28;20070;-77
2023/09/14 04:53:57;;;;;;;4.65;2.60;;;20.80;99.90;;;;;;5076722;28;20491;-76
2023/09/14 04:56:24;;;;;;;4.38;2.60;;;20.90;99.90;;;;;;5083716;28;20036;-77
2023/09/14 04:58:51;;;;;;;6.43;2.70;;;20.90;99.90;;;;;;5084238;28;22928;-77
2023/09/14 05:01:19;;;;;;;7.35;3.25;;;20.90;99.90;;;;;;5079802;28;22923;-76
2023/09/14 05:03:48;;;;;;;6.22;2.88;;;20.90;99.90;;;;;;5066796;28;20043;-77
2023/09/14 05:06:15;;;;;;;6.82;2.60;;;20.90;99.90;;;;;;5080660;28;20062;-77
2023/09/14 05:08:42;;;;;;;4.30;2.33;;;20.90;99.90;;;;;;5065257;28;20487;-77
2023/09/14 05:11:10;;;;;;;3.60;2.00;;;20.90;99.90;;;;;;5081845;28;20047;-77
2023/09/14 05:13:38;;;;;;;4.97;2.35;;;21.00;99.90;;;;;;5083043;28;20510;-77
2023/09/14 05:16:05;;;;;;;4.75;2.97;;;20.90;99.90;;;;;;5069892;28;20571;-77
2023/09/14 05:18:32;;;;;;;5.57;2.38;;;20.90;99.90;;;;;;5068684;28;20571;-77
2023/09/14 05:20:59;;;;;;;4.65;2.03;;;21.00;99.90;;;;;;5076799;28;20048;-76
2023/09/14 05:23:26;;;;;;;3.70;2.30;;;21.00;99.90;;;;;;5077102;28;20045;-77
2023/09/14 05:25:53;;;;;;;4.57;2.47;;;21.10;99.90;;;;;;5063517;28;20044;-77
2023/09/14 05:28:22;;;;;;;3.55;2.75;;;21.10;99.90;;;;;;5066983;28;20055;-78
2023/09/14 05:30:50;;;;;;;5.18;2.80;;;21.10;99.90;;;;;;5079528;28;22982;-77
2023/09/14 05:33:18;;;;;;;5.32;2.80;;;21.10;99.90;;;;;;5062138;28;20045;-77
2023/09/14 05:35:48;;;;;;;4.68;2.42;;;21.10;99.90;;;;;;5069574;28;20041;-78
2023/09/14 05:38:16;;;;;;;6.60;3.38;;;21.10;99.90;;;;;;5080936;28;20056;-77
2023/09/14 05:40:43;;;;;;;5.85;2.92;;;21.10;99.90;;;;;;5067988;28;20054;-77
2023/09/14 05:43:11;;;;;;;9.60;3.65;;;21.10;99.90;;;;;;5095937;28;20131;-77
2023/09/14 05:45:40;;;;;;;6.70;2.65;;;21.20;99.90;;;;;;5074584;28;20116;-78
2023/09/14 05:48:07;;;;;;;5.50;2.65;;;21.20;99.90;;;;;;5092343;28;20135;-77
2023/09/14 05:50:35;;;;;;;4.18;2.88;;;21.10;99.90;;;;;;5071545;28;20139;-78
2023/09/14 05:53:04;;;;;;;4.47;2.50;;;21.20;99.90;;;;;;5090002;28;20465;-77
2023/09/14 05:55:31;;;;;;;5.88;3.00;;;21.30;99.90;;;;;;5090319;28;20044;-77
2023/09/14 05:57:59;;;;;;;6.47;2.78;;;21.40;99.90;;;;;;5084640;28;20048;-77
2023/09/14 06:00:27;;;;;;;5.60;3.10;;;21.40;99.90;;;;;;5085717;28;20051;-78
2023/09/14 06:02:56;;;;;;;4.70;2.90;;;21.30;99.90;;;;;;5083485;28;20071;-77
2023/09/14 06:05:24;;;;;;;5.97;3.05;;;21.30;99.90;;;;;;5066674;28;20070;-77
2023/09/14 06:07:53;;;;;;;7.10;2.80;;;21.40;99.90;;;;;;5081243;28;20036;-77
2023/09/14 06:10:22;;;;;;;5.32;2.90;;;21.30;99.90;;;;;;5083204;28;20044;-77
2023/09/14 06:12:50;;;;;;;4.47;2.35;;;21.40;99.90;;;;;;5069628;28;20036;-77
2023/09/14 06:15:18;;;;;;;4.40;2.53;;;21.40;99.90;;;;;;5063201;28;20483;-77
2023/09/14 06:17:48;;;;;;;2.90;2.25;;;21.50;99.90;;;;;;5098066;28;20923;-77
2023/09/14 06:20:16;;;;;;;6.78;2.90;;;21.60;99.90;;;;;;5082348;28;20052;-77
2023/09/14 06:22:43;;;;;;;4.32;2.75;;;21.70;99.90;;;;;;5070288;28;20056;-77
2023/09/14 06:25:10;;;;;;;4.82;2.78;;;21.80;99.90;;;;;;5084732;28;20054;-77
2023/09/14 06:27:37;;;;;;;5.07;2.42;;;21.80;99.90;;;;;;5077138;28;20051;-78
2023/09/14 06:30:06;;;;;;;3.90;2.53;;;21.90;99.90;;;;;;5077008;28;20048;-77
2023/09/14 06:32:33;;;;;;;4.75;2.70;;;22.10;99.90;;;;;;5078587;28;20036;-77
2023/09/14 06:35:01;;;;;;;4.68;3.17;;;22.10;99.90;;;;;;5077036;28;20060;-78
2023/09/14 06:37:28;;;;;;;4.80;3.20;;;22.20;99.90;;;;;;5070007;28;20052;-77
2023/09/14 06:39:56;;;;;;;4.85;2.80;;;22.10;99.90;;;;;;5083554;28;20051;-78
2023/09/14 06:42:23;;;;;;;6.57;3.17;;;21.80;99.90;;;;;;5081085;28;20521;-77
2023/09/14 06:44:50;;;;;;;5.95;3.05;;;21.80;99.90;;;;;;5079609;28;20041;-77
2023/09/14 06:47:17;;;;;;;5.55;2.90;;;21.80;99.90;;;;;;5074803;28;20053;-77
2023/09/14 06:49:45;;;;;;;4.50;2.90;;;21.80;99.90;;;;;;5089388;28;20033;-76
2023/09/14 06:52:12;;;;;;;5.47;2.83;;;21.70;99.90;;;;;;5074431;28;20135;-77
2023/09/14 06:54:39;;;;;;;5.70;2.67;;;21.90;99.90;;;;;;5075409;28;20040;-77
2023/09/14 06:57:06;;;;;;;7.80;2.70;;;21.80;99.90;;;;;;5078678;28;20380;-77
2023/09/14 06:59:34;;;;;;;3.33;2.70;;;22.10;99.90;;;;;;5061600;28;20055;-77
2023/09/14 07:02:02;;;;;;;3.65;2.67;;;22.30;99.90;;;;;;5083218;28;20058;-76
2023/09/14 07:04:30;;;;;;;7.22;3.20;;;22.50;99.90;;;;;;5076762;28;20037;-78
2023/09/14 07:06:57;;;;;;;4.35;2.65;;;22.70;99.90;;;;;;5085538;28;20109;-77
2023/09/14 07:09:24;;;;;;;4.05;2.83;;;22.70;99.90;;;;;;5094618;28;20116;-76
2023/09/14 07:11:52;;;;;;;6.05;2.45;;;22.90;99.90;;;;;;5076176;28;22712;-76
2023/09/14 07:14:19;;;;;;;5.13;2.75;;;23.00;99.90;;;;;;5078224;28;20139;-77
2023/09/14 07:16:46;;;;;;;3.78;2.72;;;23.00;99.90;;;;;;5077903;28;20052;-80
2023/09/14 07:19:13;;;;;;;4.65;2.78;;;23.00;99.90;;;;;;5084802;28;20048;-77
2023/09/14 07:21:41;;;;;;;5.20;3.05;;;23.00;99.90;;;;;;5082514;28;20422;-77
2023/09/14 07:24:08;;;;;;;6.45;3.40;;;23.10;99.90;;;;;;5070338;28;20044;-77
2023/09/14 07:26:35;;;;;;;4.18;2.78;;;23.30;99.90;;;;;;5081414;28;20537;-78
2023/09/14 07:29:02;;;;;;;4.35;3.20;;;23.20;99.90;;;;;;5086912;28;20046;-78
2023/09/14 07:31:32;;;;;;;7.00;2.88;;;23.30;99.90;;;;;;5076179;28;20078;-77
2023/09/14 07:34:00;;;;;;;4.03;3.03;;;23.40;99.90;;;;;;5070431;28;20048;-78
2023/09/14 07:36:27;;;;;;;4.53;3.22;;;23.40;99.90;;;;;;5073356;28;20083;-78
2023/09/14 07:38:54;;;;;;;5.10;3.47;;;23.40;99.90;;;;;;5068645;28;20051;-79
2023/09/14 07:41:21;;;;;;;6.22;3.45;;;23.40;99.90;;;;;;5067939;28;20067;-78
2023/09/14 07:43:48;;;;;;;4.47;3.40;;;23.40;99.80;;;;;;5073733;28;21862;-81
2023/09/14 07:46:15;;;;;;;5.57;3.20;;;23.50;99.60;;;;;;5069282;28;20082;-76
2023/09/14 07:48:43;;;;;;;9.00;3.15;;;23.60;99.90;;;;;;5069420;28;20032;-77
2023/09/14 07:51:10;;;;;;;4.43;3.08;;;23.80;99.90;;;;;;5086022;28;20375;-77
2023/09/14 07:53:37;;;;;;;5.80;3.85;;;23.90;99.50;;;;;;5081989;28;20130;-77
2023/09/14 07:56:04;;;;;;;4.90;2.95;;;24.00;98.70;;;;;;5078706;28;20043;-77
2023/09/14 07:58:32;;;;;;;3.85;2.97;;;24.10;99.50;;;;;;5069947;28;20407;-78
2023/09/14 08:00:59;;;;;;;4.15;3.25;;;24.30;99.70;;;;;;5068357;28;20540;-77
2023/09/14 08:03:27;;;;;;;4.63;3.42;;;24.30;98.80;;;;;;5080842;28;20044;-78
2023/09/14 08:05:54;;;;;;;5.82;3.03;;;24.40;98.40;;;;;;5087625;28;20040;-77
2023/09/14 08:08:22;;;;;;;5.90;3.65;;;24.60;98.60;;;;;;5090710;28;20047;-78
2023/09/14 08:10:50;;;;;;;5.03;3.17;;;24.60;97.90;;;;;;5083354;28;20082;-78
2023/09/14 08:13:18;;;;;;;6.22;3.83;;;24.70;97.40;;;;;;5084497;28;20522;-77
2023/09/14 08:15:46;;;;;;;4.35;3.08;;;24.90;97.50;;;;;;5080927;28;20038;-78
2023/09/14 08:18:13;;;;;;;5.68;2.92;;;24.70;97.30;;;;;;5084221;28;20522;-77
2023/09/14 08:20:42;;;;;;;5.40;3.28;;;24.60;98.20;;;;;;5082333;28;20036;-78
2023/09/14 08:23:15;;;;;;;4.60;3.28;;;24.60;97.90;;;;;;5069721;28;20066;-78
2023/09/14 08:25:46;;;;;;;6.55;3.72;;;24.70;96.90;;;;;;5070789;28;20419;-80
2023/09/14 08:28:15;;;;;;;6.78;3.90;;;24.60;95.50;;;;;;5091669;28;20043;-78
2023/09/14 08:30:43;;;;;;;7.70;3.85;;;24.50;96.00;;;;;;5086669;28;20506;-80
2023/09/14 08:33:11;;;;;;;4.75;3.30;;;24.30;96.50;;;;;;5079452;28;20045;-77
2023/09/14 08:35:44;;;;;;;5.45;3.75;;;24.40;96.50;;;;;;5070067;28;20110;-79
2023/09/14 08:38:14;;;;;;;7.70;3.53;;;24.50;96.60;;;;;;5078466;28;20043;-78
2023/09/14 08:40:42;;;;;;;7.93;3.72;;;24.40;96.40;;;;;;5082985;28;20048;-79
2023/09/14 08:43:13;;;;;;;4.72;4.13;;;24.60;96.50;;;;;;5090603;28;20052;-78
2023/09/14 08:45:41;;;;;;;6.32;3.72;;;24.30;96.70;;;;;;5065891;28;20441;-78
2023/09/14 08:48:11;;;;;;;6.25;4.00;;;23.90;97.50;;;;;;5072235;28;20037;-78
2023/09/14 08:50:40;;;;;;;7.50;4.00;;;23.90;98.10;;;;;;5093247;28;20102;-78
2023/09/14 08:53:10;;;;;;;7.18;4.47;;;23.80;98.60;;;;;;5085148;28;20036;-78
2023/09/14 08:55:38;;;;;;;8.73;4.65;;;23.70;98.10;;;;;;5096027;28;20073;-78
2023/09/14 08:58:07;;;;;;;9.27;4.35;;;23.60;98.40;;;;;;5069611;28;20127;-77
2023/09/14 09:00:35;;;;;;;9.38;4.72;;;23.40;98.40;;;;;;5067212;28;20044;-77
2023/09/14 09:03:02;;;;;;;6.45;4.40;;;23.30;98.60;;;;;;5095089;28;22807;-77
2023/09/14 09:05:30;;;;;;;6.95;4.43;;;23.50;98.80;;;;;;5081384;28;20050;-77
2023/09/14 09:07:58;;;;;;;7.60;4.18;;;23.60;99.00;;;;;;5076607;28;20033;-77
2023/09/14 09:10:30;;;;;;;8.45;4.63;;;23.70;98.50;;;;;;5085928;28;20502;-78
2023/09/14 09:13:03;;;;;;;8.48;4.88;;;23.90;98.30;;;;;;5069221;28;20047;-79
2023/09/14 09:15:36;;;;;;;8.13;4.53;;;24.00;98.10;;;;;;5079429;28;20055;-77
2023/09/14 09:18:09;;;;;;;6.97;5.00;;;24.20;97.20;;;;;;5079659;28;20044;-78
2023/09/14 09:20:41;;;;;;;5.15;4.30;;;24.30;97.10;;;;;;5085292;28;20395;-76
2023/09/14 09:23:09;;;;;;;6.80;4.72;;;24.20;96.40;;;;;;5088183;28;20044;-77
2023/09/14 09:25:47;;;;;;;8.00;4.30;;;24.30;97.00;;;;;;5086557;28;20157;-81
2023/09/14 09:28:15;;;;;;;8.05;4.60;;;24.30;96.50;;;;;;5066945;28;20061;-77
2023/09/14 09:30:44;;;;;;;7.95;4.45;;;24.30;95.60;;;;;;5085248;28;20062;-77
2023/09/14 09:33:12;;;;;;;5.32;4.28;;;24.30;96.20;;;;;;5088356;28;20506;-77
2023/09/14 09:35:40;;;;;;;7.32;4.32;;;24.30;95.40;;;;;;5071454;28;20036;-77
2023/09/14 09:38:13;;;;;;;6.20;3.97;;;24.20;95.10;;;;;;5083487;28;20468;-77
2023/09/14 09:40:45;;;;;;;6.65;3.60;;;24.40;95.70;;;;;;5081583;28;20055;-77
2023/09/14 09:43:18;;;;;;;6.18;4.20;;;24.60;94.60;;;;;;5097496;27;20051;-78
2023/09/14 09:45:47;;;;;;;8.77;4.93;;;24.60;93.70;;;;;;5086860;28;20054;-77
2023/09/14 09:48:14;;;;;;;6.63;4.07;;;24.10;94.00;;;;;;5085038;28;20142;-77
2023/09/14 09:50:42;;;;;;;8.02;4.22;;;24.00;94.70;;;;;;5085852;28;20956;-77
2023/09/14 09:53:14;;;;;;;6.30;4.03;;;23.90;95.40;;;;;;5060810;28;21380;-76
2023/09/14 09:55:46;;;;;;;6.13;4.10;;;23.90;95.70;;;;;;5067881;28;20090;-79
2023/09/14 09:58:16;;;;;;;6.85;4.00;;;23.80;95.60;;;;;;5072421;28;20068;-79
2023/09/14 10:00:44;;;;;;;6.17;3.10;;;23.50;94.30;;;;;;5083664;28;20979;-77
2023/09/14 10:03:16;;;;;;;7.15;3.88;;;23.50;94.40;;;;;;5082665;28;20048;-78
2023/09/14 10:05:43;;;;;;;6.20;3.90;;;23.60;95.10;;;;;;5067818;28;20098;-76
2023/09/14 10:08:15;;;;;;;7.03;4.03;;;23.60;96.60;;;;;;5079939;28;20086;-77
2023/09/14 10:10:50;;;;;;;;;;;24.00;97.30;;;;;;5078093;28;20053;-77
2023/09/14 10:13:26;;;;;;;6.10;4.50;;;24.10;96.60;;;;;;5084311;28;19921;-77
2023/09/14 10:15:54;;;;;;;7.20;4.25;;;24.30;96.40;;;;;;5070598;28;20049;-77
2023/09/14 10:18:23;;;;;;;6.75;4.93;;;24.40;95.90;;;;;;5078296;28;20036;-77
2023/09/14 10:20:51;;;;;;;5.72;4.57;;;24.60;95.70;;;;;;5094353;27;20048;-78
2023/09/14 10:23:20;;;;;;;4.90;3.95;;;24.70;95.70;;;;;;5065728;28;20502;-77
2023/09/14 10:25:51;;;;;;;6.07;4.03;;;24.90;94.50;;;;;;5084696;28;20196;-77
2023/09/14 10:28:22;;;;;;;6.43;4.23;;;24.90;94.10;;;;;;5097602;28;21017;-78
2023/09/14 10:30:52;;;;;;;5.10;4.10;;;24.60;93.90;;;;;;5080845;28;20045;-77
2023/09/14 10:33:21;;;;;;;7.80;4.35;;;24.30;93.90;;;;;;5085617;28;20379;-78
2023/09/14 10:35:50;;;;;;;6.25;4.03;;;24.10;94.60;;;;;;5088139;28;20126;-81
2023/09/14 10:38:23;;;;;;;5.82;4.60;;;24.10;95.30;;;;;;5064951;28;20174;-77
2023/09/14 10:40:52;;;;;;;6.47;4.32;;;24.30;95.90;;;;;;5082045;28;20503;-77
2023/09/14 10:43:19;;;;;;;6.50;4.68;;;24.60;95.80;;;;;;5085174;28;20506;-78
2023/09/14 10:45:48;;;;;;;6.53;4.40;;;24.60;94.60;;;;;;5077788;28;20106;-77
2023/09/14 10:48:20;;;;;;;5.75;4.20;;;24.60;94.00;;;;;;5067870;28;20087;-78
2023/09/14 10:50:49;;;;;;;5.53;3.78;;;24.60;94.20;;;;;;5085296;28;20134;-77
2023/09/14 10:53:16;;;;;;;5.60;4.15;;;24.60;93.90;;;;;;5067293;28;20044;-78
2023/09/14 10:55:43;;;;;;;6.63;4.53;;;24.60;94.00;;;;;;5076656;28;20044;-78
2023/09/14 10:58:12;;;;;;;5.55;4.30;;;24.60;94.80;;;;;;5085690;28;20053;-78
2023/09/14 11:00:42;;;;;;;4.55;3.50;;;24.60;94.10;;;;;;5081604;28;20135;-78
2023/09/14 11:03:22;;;;;;;8.70;3.90;;;24.30;93.10;;;;;;5055852;28;20040;-80
2023/09/14 11:05:53;;;;;;;5.85;3.28;;;24.30;93.00;;;;;;5076172;28;20513;-78
2023/09/14 11:08:27;;;;;;;7.00;3.75;;;24.20;91.80;;;;;;5051246;28;20059;-82
2023/09/14 11:11:08;;;;;;;4.80;3.33;;;24.20;91.60;;;;;;5059430;28;20037;-77
2023/09/14 11:13:38;;;;;;;4.97;3.50;;;24.50;92.30;;;;;;5049251;28;20054;-77
2023/09/14 11:16:13;;;;;;;6.82;3.47;;;24.70;91.50;;;;;;5046841;28;20044;-78
2023/09/14 11:18:48;;;;;;;8.68;3.85;;;25.00;91.10;;;;;;5068994;28;20142;-77
2023/09/14 11:21:36;;;;;;;3.67;2.88;;;25.20;90.20;;;;;;5070902;28;20684;-77
2023/09/14 11:24:06;;;;;;;7.32;3.83;;;25.50;90.50;;;;;;5053906;28;20142;-78
2023/09/14 11:26:42;;;;;;;9.40;4.28;;;25.30;89.20;;;;;;5065933;28;20071;-78
2023/09/14 11:29:12;;;;;;;5.57;3.25;;;25.30;89.10;;;;;;5054200;28;20048;-77
2023/09/14 11:31:40;;;;;;;7.95;4.68;;;25.20;88.00;;;;;;5077223;28;20127;-78
2023/09/14 11:34:28;;;;;;;6.03;3.80;;;25.00;86.90;;;;;;5078318;28;20053;-76
2023/09/14 11:37:01;;;;;;;5.40;3.47;;;24.80;87.40;;;;;;5065779;28;20533;-78
2023/09/14 11:39:34;;;;;;;6.55;3.05;;;24.60;87.70;;;;;;5039509;28;20465;-79
2023/09/14 11:42:04;;;;;;;5.07;3.28;;;24.50;88.50;;;;;;5069420;28;20044;-77
2023/09/14 11:44:53;;;;;;;7.60;4.57;;;24.40;88.30;;;;;;5056493;28;20047;-79
2023/09/14 11:47:27;;;;;;;6.22;3.42;;;24.40;88.90;;;;;;5097329;28;20059;-77
2023/09/14 11:50:05;;;;;;;6.47;3.45;;;24.40;88.70;;;;;;5053866;28;20056;-76
2023/09/14 11:52:35;;;;;;;9.88;3.88;;;24.60;89.10;;;;;;5063878;28;20040;-78
2023/09/14 11:55:03;;;;;;;5.28;3.38;;;25.00;89.70;;;;;;5050259;28;20043;-77
2023/09/14 11:57:30;;;;;;;6.35;3.95;;;25.10;89.20;;;;;;5057315;28;20037;-78
2023/09/14 11:59:59;;;;;;;5.35;3.80;;;25.10;88.60;;;;;;5073691;28;20060;-77
2023/09/14 12:02:26;;;;;;;4.72;3.25;;;24.90;89.40;;;;;;5089723;28;20109;-78
2023/09/14 12:04:53;;;;;;;5.35;3.28;;;24.80;90.20;;;;;;5086493;28;20529;-77
2023/09/14 12:07:23;;;;;;;5.53;3.97;;;24.50;90.70;;;;;;5083731;28;20036;-78
2023/09/14 12:09:50;;;;;;;4.57;3.80;;;24.30;91.40;;;;;;5083408;28;20044;-78
2023/09/14 12:12:29;;;;;;;5.45;3.85;;;24.20;91.90;;;;;;5087646;28;20058;-78
2023/09/14 12:15:01;;;;;;;5.63;3.72;;;24.30;92.80;;;;;;5073884;28;20098;-77
2023/09/14 12:17:30;;;;;;;5.82;4.10;;;24.00;94.20;;;;;;5101592;28;20047;-78
2023/09/14 12:20:01;;;;;;;6.55;3.40;;;23.90;95.70;;;;;;5085394;28;20144;-78
2023/09/14 12:22:32;;;;;;;7.20;3.72;;;23.80;96.20;;;;;;5086147;28;20048;-78
2023/09/14 12:25:03;;;;;;;5.05;3.10;;;23.80;96.60;;;;;;5092353;28;20145;-77
2023/09/14 12:27:33;;;;;;;6.68;3.78;;;23.80;96.70;;;;;;5081558;28;20040;-79
2023/09/14 12:30:05;;;;;;;5.15;3.47;;;23.90;96.60;;;;;;5084888;28;20422;-78
2023/09/14 12:32:32;;;;;;;6.78;4.20;;;23.90;96.40;;;;;;5075578;28;20051;-78
2023/09/14 12:35:00;;;;;;;5.13;3.60;;;24.00;97.30;;;;;;5076111;28;20581;-77
2023/09/14 12:37:28;;;;;;;5.85;3.70;;;23.80;99.40;;;;;;5075831;28;20048;-78
2023/09/14 12:39:55;;;;;;;5.45;3.88;;;23.80;99.90;;;;;;5084290;28;22935;-77
2023/09/14 12:42:24;;;;;;;4.68;3.67;;;23.80;99.90;;;;;;5091854;28;20100;-77
2023/09/14 12:44:55;;;;;;;5.38;3.08;;;23.60;99.90;;;;;;5080803;28;20127;-77
2023/09/14 12:47:24;;;;;;;4.47;3.30;;;23.70;99.90;;;;;;5079921;28;20998;-77
2023/09/14 12:50:01;;;;;;;6.32;4.05;;;23.80;99.90;;;;;;5078649;28;20045;-76
2023/09/14 12:52:28;;;;;;;6.20;3.38;;;23.90;99.90;;;;;;5079466;28;20051;-76
2023/09/14 12:54:56;;;;;;;4.97;3.15;;;24.00;99.90;;;;;;5078896;28;20037;-76